• Join FlightAware (Why Join?)
  • Login
  • US Flag 
11:12PM EDT


 

Airport Tracker/Info


-or-


 

Live Flight TrackerFlight Track Log ✈ EGF3994 ✈ 20-Apr-2013 ✈ KORD - KDAY

Flight Track Log - Related Links

Times and Time Zones

All times are in EDT time to prevent confusion due to time zone crossing. See the EGF3994 flight status page for this flight to view local times or setup timezone preferences in your user account.

Time Position Orientation Groundspeed Altitude Reporting Facility
EDT Latitude Longitude Course Direction KTS MPH feet Rate Location/Type
07:03PM 42.0000 -87.8333 90° East 207 238 3,400  Level Chicago TRACON
07:05PM 41.9592 -87.4586 98° East  Level FlightAware Approximate
07:05PM 41.9958 -87.6917 92° East 259 298 6,700  Level Chicago Center
07:06PM 41.9462 -87.3123 95° East  Level FlightAware Approximate
07:06PM 41.9886 -87.5881 95° East 276 318 9,500  Level Chicago Center
07:07PM 41.9357 -87.1657 95° East  Level FlightAware Approximate
07:07PM 41.9775 -87.4547 96° East 299 344 11,800  Level Chicago Center
07:08PM 41.9333 -87.0185 90° East  Level FlightAware Approximate
07:08PM 41.9667 -87.3325 97° East 326 375 13,600  Level Chicago Center
07:09PM 41.9333 -86.8934 90° East  Level FlightAware Approximate
07:09PM 41.9514 -87.2022 99° East 353 406 14,900  Level Chicago Center
07:10PM 41.9344 -87.0603 99° East 384 442 16,000 1,080 Climbing Chicago Center
07:11PM 41.9175 -86.9106 99° East 404 465 17,200 960 Climbing Chicago Center
07:12PM 41.8547 -86.7778 122° Southeast 427 491 18,000 1,020 Climbing Chicago Center
07:13PM 41.7839 -86.6508 127° Southeast 433 498 19,300 1,200 Climbing Chicago Center
07:14PM 41.7114 -86.5194 126° Southeast 441 507 20,500 1,260 Climbing Chicago Center
07:15PM 41.6225 -86.3594 127° Southeast 448 516 22,000 1,200 Climbing Chicago Center
07:16PM 41.5458 -86.2242 127° Southeast 459 528 23,000 480 Climbing Chicago Center
07:17PM 41.4689 -86.0839 126° Southeast 473 544 23,000  Level Chicago Center
07:18PM 41.3864 -85.9383 127° Southeast 494 568 23,000  Level Chicago Center
07:19PM 41.3042 -85.7936 127° Southeast 498 573 23,000  Level Chicago Center
07:20PM 41.2233 -85.6497 127° Southeast 495 570 23,000  Level Chicago Center
07:21PM 41.1411 -85.5047 127° Southeast 496 571 23,000 -540 Level Chicago Center
07:22PM 41.0433 -85.3353 127° Southeast 490 564 22,000 -1,620 Descending Chicago Center
07:23PM 40.9639 -85.1967 127° Southeast 481 554 19,800 -1,980 Descending Chicago Center
07:24PM 40.8867 -85.0631 127° Southeast 466 536 18,000 -1,980 Descending Chicago Center
07:25PM 40.8097 -84.9325 128° Southeast 457 526 15,800 -1,500 Descending Chicago Center
07:26PM 40.7361 -84.7981 126° Southeast 456 525 15,000 -420 Descending Chicago Center
07:27PM 40.6636 -84.6714 127° Southeast 446 513 15,000 -360 Level Chicago Center
07:28PM 40.6200 -84.6028 130° Southeast 432 497 14,500 -1,200 Descending Indianapolis Center
07:28PM 40.5867 -84.5461 128° Southeast 431 496 13,800 -1,500 Descending Indianapolis Center
07:29PM 40.5483 -84.4803 127° Southeast 426 490 13,000 -1,500 Descending Indianapolis Center
07:29PM 40.5144 -84.4242 128° Southeast 423 487 12,300 -1,560 Descending Indianapolis Center
07:30PM 40.4836 -84.3725 128° Southeast 410 472 11,600 -1,620 Descending Indianapolis Center
07:30PM 40.4375 -84.2939 128° Southeast 387 445 10,700 -1,080 Descending Indianapolis Center
07:31PM 40.4100 -84.2692 146° Southeast 337 388 10,400 -1,140 Descending Indianapolis Center
07:31PM 40.3583 -84.2522 166° South 317 365 9,600 -1,200 Descending Indianapolis Center
07:32PM 40.3325 -84.2422 164° South 270 311 9,200 -1,500 Descending Indianapolis Center
07:32PM 40.2839 -84.2286 168° South 288 331 8,100 -1,560 Descending Indianapolis Center
07:33PM 40.2650 -84.2222 166° South 261 300 7,800 -1,440 Descending Indianapolis Center
07:34PM 40.1953 -84.2019 167° South 254 292 6,300 -1,560 Descending Indianapolis Center
07:34PM 40.1458 -84.1869 167° South 258 297 5,100 -1,620 Descending Indianapolis Center
07:35PM 40.1194 -84.1783 166° South 246 283 4,500 -1,500 Descending Indianapolis Center
07:35PM 40.0772 -84.1656 167° South 252 290 3,600 -1,200 Descending Indianapolis Center
07:36PM 40.0500 -84.1583 169° South 258 297 3,300 -840 Descending Indianapolis Center